Time;durP1;ratioP1;P1;durP2;ratioP2;P2;SDS_P1;SDS_P2;PMS_P1;PMS_P2;Temp;Humidity;BMP_temperature;BMP_pressure;BME280_temperature;BME280_humidity;BME280_pressure;Samples;Min_cycle;Max_cycle;Signal;HPM_P1;HPM_P2
2022/05/13 00:01:40;;;;;;;3.20;1.08;;;15.00;53.20;;;;;;5027119;28;20098;-52
2022/05/13 00:04:07;;;;;;;3.75;1.55;;;15.00;53.10;;;;;;5021959;28;20065;-49
2022/05/13 00:06:35;;;;;;;3.30;1.55;;;14.90;53.10;;;;;;5040503;28;20071;-50
2022/05/13 00:09:07;;;;;;;2.17;1.08;;;14.90;53.20;;;;;;5033216;28;20048;-53
2022/05/13 00:11:36;;;;;;;2.50;1.20;;;14.80;53.20;;;;;;5034561;28;20121;-48
2022/05/13 00:14:06;;;;;;;2.92;1.23;;;14.80;53.20;;;;;;5047326;28;20099;-51
2022/05/13 00:16:36;;;;;;;2.67;1.60;;;14.80;53.30;;;;;;5040119;28;20037;-48
2022/05/13 00:19:10;;;;;;;4.38;1.42;;;14.70;53.40;;;;;;5032083;28;20048;-52
2022/05/13 00:21:40;;;;;;;1.17;1.08;;;14.70;53.40;;;;;;5044631;28;20110;-51
2022/05/13 00:24:09;;;;;;;2.15;1.27;;;14.70;53.50;;;;;;5037486;28;20049;-47
2022/05/13 00:26:35;;;;;;;1.70;1.13;;;14.60;53.70;;;;;;5031590;28;20049;-48
2022/05/13 00:29:07;;;;;;;4.82;1.55;;;14.60;53.70;;;;;;5031417;28;20038;-48
2022/05/13 00:31:39;;;;;;;2.17;1.23;;;14.60;54.00;;;;;;5034858;28;20048;-50
2022/05/13 00:34:13;;;;;;;2.60;1.48;;;14.50;54.10;;;;;;5043158;28;20044;-50
2022/05/13 00:36:40;;;;;;;1.50;1.40;;;14.50;54.30;;;;;;5051888;28;20041;-48
2022/05/13 00:39:08;;;;;;;3.13;1.75;;;14.50;54.30;;;;;;5032284;28;20053;-50
2022/05/13 00:41:36;;;;;;;3.05;1.52;;;14.50;54.30;;;;;;5033963;28;20053;-49
2022/05/13 00:44:03;;;;;;;5.97;2.03;;;14.50;54.20;;;;;;5047491;28;20095;-48
2022/05/13 00:46:30;;;;;;;2.65;1.63;;;14.40;54.40;;;;;;5051477;28;20094;-51
2022/05/13 00:49:02;;;;;;;3.15;1.92;;;14.50;54.50;;;;;;5039181;28;20040;-52
2022/05/13 00:51:37;;;;;;;1.95;1.48;;;14.50;54.90;;;;;;5040190;28;20547;-47
2022/05/13 00:54:06;;;;;;;2.22;1.25;;;14.40;55.00;;;;;;5039492;28;20390;-52
2022/05/13 00:56:35;;;;;;;2.22;1.58;;;14.40;55.30;;;;;;5031202;28;20037;-50
2022/05/13 00:59:06;;;;;;;2.35;1.80;;;14.40;54.70;;;;;;5038806;28;20041;-52
2022/05/13 01:01:35;;;;;;;3.28;1.75;;;14.40;54.90;;;;;;5042671;28;20115;-51
2022/05/13 01:04:16;;;;;;;4.63;2.30;;;14.40;54.60;;;;;;5036002;28;20120;-49
2022/05/13 01:06:54;;;;;;;2.72;1.58;;;14.40;55.20;;;;;;5010795;28;20091;-50
2022/05/13 01:09:22;;;;;;;3.78;1.70;;;14.40;54.80;;;;;;5041208;28;20091;-48
2022/05/13 01:11:55;;;;;;;2.38;1.98;;;14.40;54.60;;;;;;5045475;28;20049;-48
2022/05/13 01:14:29;;;;;;;2.60;2.03;;;14.40;55.50;;;;;;5049862;28;20048;-48
2022/05/13 01:20:24;;;;;;;2.33;1.85;;;14.30;55.20;;;;;;5039394;28;20471;-50
2022/05/13 01:23:00;;;;;;;2.80;1.77;;;14.30;54.50;;;;;;5051373;28;20531;-49
2022/05/13 01:25:33;;;;;;;2.60;1.70;;;14.20;55.20;;;;;;5033624;28;20509;-47
2022/05/13 01:28:20;;;;;;;4.20;1.90;;;14.20;55.30;;;;;;5043080;28;20067;-48
2022/05/13 01:30:54;;;;;;;3.15;1.75;;;14.20;55.90;;;;;;5038392;28;20049;-50
2022/05/13 01:33:22;;;;;;;2.42;1.70;;;14.20;55.70;;;;;;5047270;28;20040;-52
2022/05/13 01:35:55;;;;;;;4.88;2.47;;;14.10;55.50;;;;;;5035705;28;20036;-53
2022/05/13 01:38:30;;;;;;;4.32;3.28;;;14.10;55.80;;;;;;5042800;28;20099;-52
2022/05/13 01:40:59;;;;;;;4.00;1.90;;;14.10;55.80;;;;;;5051715;28;20136;-52
2022/05/13 01:43:26;;;;;;;2.83;2.10;;;14.10;55.60;;;;;;5025254;28;20087;-52
2022/05/13 01:45:55;;;;;;;3.47;1.80;;;14.10;55.70;;;;;;5032485;28;20045;-53
2022/05/13 01:48:26;;;;;;;3.25;1.73;;;14.10;55.90;;;;;;5039931;28;20517;-53
2022/05/13 01:50:57;;;;;;;4.05;2.30;;;14.10;56.00;;;;;;5037184;28;20103;-53
2022/05/13 01:53:24;;;;;;;3.15;1.88;;;14.10;56.70;;;;;;5025228;28;20077;-50
2022/05/13 01:55:50;;;;;;;5.80;1.83;;;14.20;56.10;;;;;;5038101;28;20049;-51
2022/05/13 01:58:20;;;;;;;4.22;1.70;;;14.20;56.00;;;;;;5032347;28;20111;-50
2022/05/13 02:01:07;;;;;;;3.67;2.05;;;14.20;55.80;;;;;;5031226;28;20528;-53
2022/05/13 02:03:46;;;;;;;4.45;1.67;;;14.20;56.50;;;;;;5040473;28;20063;-50
2022/05/13 02:06:22;;;;;;;5.15;2.03;;;14.20;55.50;;;;;;5042154;28;20431;-53
2022/05/13 02:08:51;;;;;;;2.85;1.77;;;14.30;55.60;;;;;;5036047;28;20485;-50
2022/05/13 02:11:20;;;;;;;3.08;1.58;;;14.30;55.20;;;;;;5037239;28;20540;-49
2022/05/13 02:13:54;;;;;;;2.03;1.50;;;14.30;55.10;;;;;;5038192;28;20079;-53
2022/05/13 02:16:29;;;;;;;3.85;1.60;;;14.40;54.90;;;;;;5047543;28;20044;-49
2022/05/13 02:18:58;;;;;;;2.92;1.70;;;14.40;54.80;;;;;;5049884;28;20045;-51
2022/05/13 02:21:27;;;;;;;2.70;1.90;;;14.40;54.90;;;;;;5047301;28;20042;-50
2022/05/13 02:23:54;;;;;;;2.90;1.63;;;14.40;54.60;;;;;;5031610;28;20050;-48
2022/05/13 02:26:25;;;;;;;3.53;1.23;;;14.40;54.70;;;;;;5037932;28;20047;-49
2022/05/13 02:28:52;;;;;;;3.28;1.50;;;14.40;54.50;;;;;;5029563;28;20041;-52
2022/05/13 02:31:19;;;;;;;3.45;1.52;;;14.40;54.50;;;;;;5030982;28;20045;-52
2022/05/13 02:33:46;;;;;;;1.95;1.35;;;14.40;54.60;;;;;;5029584;28;20504;-51
2022/05/13 02:36:13;;;;;;;4.50;1.60;;;14.40;54.60;;;;;;5041628;28;20037;-51
2022/05/13 02:38:44;;;;;;;1.40;1.30;;;14.40;54.40;;;;;;5049027;28;20472;-53
2022/05/13 02:41:14;;;;;;;2.60;1.83;;;14.40;54.40;;;;;;5033520;28;20046;-51
2022/05/13 02:43:53;;;;;;;1.88;1.38;;;14.40;54.40;;;;;;5029796;28;20505;-47
2022/05/13 02:46:26;;;;;;;2.13;1.10;;;14.40;54.60;;;;;;5035627;28;20045;-48
2022/05/13 02:48:54;;;;;;;3.15;1.50;;;14.40;54.40;;;;;;5026860;28;20057;-49
2022/05/13 02:51:21;;;;;;;3.75;1.38;;;14.30;54.30;;;;;;5032618;28;20069;-48
2022/05/13 02:53:49;;;;;;;4.78;1.55;;;14.30;54.20;;;;;;5029299;28;20393;-48
2022/05/13 02:56:16;;;;;;;4.00;1.60;;;14.30;54.30;;;;;;5029219;28;20112;-49
2022/05/13 02:58:45;;;;;;;2.67;1.20;;;14.30;54.30;;;;;;5028446;28;20065;-50
2022/05/13 03:01:13;;;;;;;4.45;1.42;;;14.20;54.30;;;;;;5033666;28;20041;-48
2022/05/13 03:03:43;;;;;;;3.20;1.33;;;14.20;54.40;;;;;;5039579;28;20071;-52
2022/05/13 03:06:10;;;;;;;3.38;1.40;;;14.20;54.60;;;;;;5049674;28;20057;-47
2022/05/13 03:08:42;;;;;;;3.42;1.15;;;14.20;54.60;;;;;;5041016;28;20041;-51
2022/05/13 03:11:11;;;;;;;3.42;1.20;;;14.20;54.50;;;;;;5044486;28;20040;-48
2022/05/13 03:13:43;;;;;;;2.65;1.27;;;14.20;54.70;;;;;;5040647;28;20041;-49
2022/05/13 03:16:19;;;;;;;4.50;1.42;;;14.10;54.60;;;;;;5019077;28;20117;-50
2022/05/13 03:18:47;;;;;;;6.40;1.67;;;14.20;55.00;;;;;;5034039;28;20116;-48
2022/05/13 03:21:18;;;;;;;;;;;14.20;54.70;;;;;;5038025;28;20049;-51
2022/05/13 03:23:46;;;;;;;3.28;1.40;;;14.20;54.40;;;;;;5037624;28;19921;-51
2022/05/13 03:26:20;;;;;;;5.43;1.60;;;14.20;54.20;;;;;;5029642;28;20072;-51
2022/05/13 03:28:48;;;;;;;4.07;1.50;;;14.10;55.00;;;;;;5023641;28;20046;-52
2022/05/13 03:31:18;;;;;;;5.82;1.73;;;14.10;54.50;;;;;;5037586;28;20041;-53
2022/05/13 03:33:48;;;;;;;3.22;1.35;;;14.10;54.60;;;;;;5048881;28;20047;-53
2022/05/13 03:36:15;;;;;;;3.95;1.45;;;14.10;54.70;;;;;;5031571;28;20041;-52
2022/05/13 03:38:44;;;;;;;2.33;0.90;;;14.10;54.90;;;;;;5032001;28;20600;-52
2022/05/13 03:41:13;;;;;;;3.25;1.08;;;14.10;55.00;;;;;;5033506;28;20039;-51
2022/05/13 03:43:41;;;;;;;2.83;1.10;;;14.10;55.00;;;;;;5032217;28;20037;-53
2022/05/13 03:46:11;;;;;;;6.45;1.25;;;14.10;55.00;;;;;;5029926;28;20097;-53
2022/05/13 03:48:41;;;;;;;3.75;1.45;;;14.20;55.20;;;;;;5032137;28;20119;-53
2022/05/13 03:51:09;;;;;;;5.30;2.10;;;14.20;55.10;;;;;;5030905;28;20045;-52
2022/05/13 03:53:38;;;;;;;2.65;1.20;;;14.20;55.10;;;;;;5033027;28;20041;-52
2022/05/13 03:56:07;;;;;;;6.22;1.48;;;14.20;55.10;;;;;;5033361;28;20121;-52
2022/05/13 03:58:34;;;;;;;3.17;1.50;;;14.30;55.10;;;;;;5034776;28;20153;-50
2022/05/13 04:01:06;;;;;;;6.28;1.58;;;14.30;55.10;;;;;;5031042;28;20551;-52
2022/05/13 04:03:35;;;;;;;4.38;1.58;;;14.30;55.40;;;;;;5030863;28;20124;-48
2022/05/13 04:08:57;;;;;;;4.43;1.40;;;14.30;55.10;;;;;;5027260;28;20104;-50
2022/05/13 04:11:30;;;;;;;3.33;1.30;;;14.30;55.20;;;;;;5026223;28;20125;-48
2022/05/13 04:16:43;;;;;;;2.78;1.10;;;14.30;55.30;;;;;;5030303;28;20037;-50
2022/05/13 04:19:12;;;;;;;9.02;1.63;;;14.40;55.40;;;;;;5031418;28;20142;-49
2022/05/13 04:21:40;;;;;;;3.42;1.40;;;14.30;56.10;;;;;;5031263;28;20100;-50
2022/05/13 04:24:10;;;;;;;3.50;1.33;;;14.40;55.60;;;;;;5030290;28;20127;-50
2022/05/13 04:26:37;;;;;;;7.38;1.70;;;14.40;55.50;;;;;;5025894;28;20041;-50
2022/05/13 04:29:06;;;;;;;2.88;1.30;;;14.40;55.40;;;;;;5026317;28;20374;-48
2022/05/13 04:31:35;;;;;;;4.60;1.60;;;14.40;55.40;;;;;;5029483;28;20112;-49
2022/05/13 04:34:03;;;;;;;4.70;1.70;;;14.40;55.40;;;;;;5030957;28;20026;-53
2022/05/13 04:36:30;;;;;;;3.50;1.42;;;14.40;55.40;;;;;;5031384;28;20037;-48
2022/05/13 04:38:57;;;;;;;5.18;1.50;;;14.40;55.50;;;;;;5027450;28;20041;-52
2022/05/13 04:44:12;;;;;;;4.68;1.60;;;14.40;55.70;;;;;;5026594;28;20092;-50
2022/05/13 04:46:39;;;;;;;2.58;1.20;;;14.40;55.60;;;;;;5028680;28;20034;-52
2022/05/13 04:49:07;;;;;;;3.50;1.45;;;14.40;55.60;;;;;;5012320;28;20042;-53
2022/05/13 04:51:34;;;;;;;2.22;1.48;;;14.40;55.80;;;;;;5028451;28;20517;-49
2022/05/13 04:54:01;;;;;;;5.25;1.52;;;14.40;55.70;;;;;;5029026;28;20092;-52
2022/05/13 04:56:29;;;;;;;4.25;1.70;;;14.40;55.60;;;;;;5031646;28;20797;-48
2022/05/13 04:58:57;;;;;;;1.77;1.30;;;14.40;55.80;;;;;;5031158;28;20060;-48
2022/05/13 05:01:25;;;;;;;3.95;2.00;;;14.40;55.90;;;;;;5034650;28;20412;-49
2022/05/13 05:03:52;;;;;;;3.65;1.58;;;14.40;56.10;;;;;;5039132;28;20075;-48
2022/05/13 05:06:20;;;;;;;4.55;1.52;;;14.40;56.20;;;;;;5118598;23;20057;-48
2022/05/13 05:08:48;;;;;;;4.80;1.98;;;14.40;56.20;;;;;;5031263;28;20112;-47
2022/05/13 05:11:15;;;;;;;4.53;1.85;;;14.50;56.20;;;;;;5011866;28;20096;-50
2022/05/13 05:13:48;;;;;;;4.20;1.50;;;14.50;56.30;;;;;;5031933;28;20041;-46
2022/05/13 05:16:16;;;;;;;5.40;2.25;;;14.50;56.40;;;;;;5030653;28;20064;-48
2022/05/13 05:18:43;;;;;;;5.65;1.75;;;14.60;56.30;;;;;;5028605;28;20129;-48
2022/05/13 05:21:11;;;;;;;4.95;1.63;;;14.60;56.20;;;;;;5030713;28;20042;-48
2022/05/13 05:23:40;;;;;;;4.72;2.03;;;14.60;56.10;;;;;;5022515;28;20120;-47
2022/05/13 05:26:07;;;;;;;9.38;1.70;;;14.70;56.20;;;;;;5031544;28;20103;-47
2022/05/13 05:28:37;;;;;;;7.43;1.80;;;14.70;56.00;;;;;;5022870;28;20049;-47
2022/05/13 05:31:04;;;;;;;3.00;1.40;;;14.70;56.00;;;;;;5024267;28;20041;-46
2022/05/13 05:33:31;;;;;;;4.72;1.98;;;14.70;56.00;;;;;;5027576;28;20563;-47
2022/05/13 05:35:58;;;;;;;2.72;1.77;;;14.80;56.10;;;;;;5028412;28;20076;-47
2022/05/13 05:38:25;;;;;;;4.25;1.45;;;14.80;55.90;;;;;;5023965;28;20132;-49
2022/05/13 05:40:52;;;;;;;2.97;1.67;;;14.80;55.90;;;;;;5026272;28;20056;-46
2022/05/13 05:43:20;;;;;;;6.18;1.95;;;14.80;56.00;;;;;;5010633;28;20045;-50
2022/05/13 05:45:47;;;;;;;4.85;2.00;;;14.80;56.10;;;;;;5025605;28;20057;-48
2022/05/13 05:48:21;;;;;;;6.97;1.67;;;14.80;56.10;;;;;;5026368;28;20057;-46
2022/05/13 05:50:54;;;;;;;5.75;2.20;;;14.80;56.60;;;;;;5012921;28;20077;-50
2022/05/13 05:58:57;;;;;;;6.72;1.90;;;14.90;56.10;;;;;;5022250;28;20034;-47
2022/05/13 06:01:24;;;;;;;5.90;2.03;;;15.00;56.30;;;;;;5022213;28;20073;-46
2022/05/13 06:03:50;;;;;;;5.93;2.83;;;15.00;56.20;;;;;;5021890;28;20049;-50
2022/05/13 06:06:17;;;;;;;5.65;2.30;;;15.00;56.00;;;;;;5026876;28;20131;-51
2022/05/13 06:08:44;;;;;;;4.97;1.90;;;15.00;56.10;;;;;;5028172;28;20560;-47
2022/05/13 06:11:11;;;;;;;4.95;2.00;;;15.10;56.10;;;;;;5011943;28;20050;-49
2022/05/13 06:13:38;;;;;;;5.28;2.63;;;15.10;56.00;;;;;;5017355;28;20041;-50
2022/05/13 06:16:07;;;;;;;6.03;2.15;;;15.20;56.20;;;;;;5024919;28;20124;-50
2022/05/13 06:18:36;;;;;;;5.00;2.20;;;15.20;56.10;;;;;;5023734;28;20468;-49
2022/05/13 06:21:03;;;;;;;4.57;1.65;;;15.30;56.00;;;;;;5018756;28;20076;-48
2022/05/13 06:23:30;;;;;;;4.28;2.15;;;15.30;55.90;;;;;;5026883;28;20088;-51
2022/05/13 06:25:57;;;;;;;5.22;2.25;;;15.40;55.90;;;;;;5021087;28;20046;-49
2022/05/13 06:28:25;;;;;;;4.53;1.88;;;15.50;56.00;;;;;;5024675;28;20073;-46
2022/05/13 06:30:51;;;;;;;5.57;1.90;;;15.50;55.80;;;;;;5022623;28;20721;-48
2022/05/13 06:33:18;;;;;;;4.40;1.92;;;15.70;56.20;;;;;;5017802;28;20117;-49
2022/05/13 06:35:45;;;;;;;4.63;2.13;;;15.70;55.90;;;;;;5010386;28;20516;-48
2022/05/13 06:38:20;;;;;;;7.68;2.20;;;15.80;55.70;;;;;;5018942;28;20049;-50
2022/05/13 06:40:48;;;;;;;4.70;2.00;;;16.00;55.70;;;;;;5010054;28;20088;-47
2022/05/13 06:43:15;;;;;;;6.60;2.65;;;16.00;55.20;;;;;;5007417;28;20069;-46
2022/05/13 06:45:42;;;;;;;5.20;2.45;;;16.10;55.30;;;;;;5029236;28;20449;-47
2022/05/13 06:48:10;;;;;;;4.63;1.85;;;16.20;55.10;;;;;;5022498;28;20509;-51
2022/05/13 06:50:39;;;;;;;5.60;1.95;;;16.20;55.10;;;;;;5012959;28;20041;-46
2022/05/13 06:53:06;;;;;;;5.47;2.03;;;16.30;55.40;;;;;;5024019;28;20189;-47
2022/05/13 06:55:32;;;;;;;3.67;1.85;;;16.40;55.30;;;;;;5015289;28;20510;-48
2022/05/13 06:57:59;;;;;;;6.40;2.35;;;16.50;55.10;;;;;;5007699;28;20096;-48
2022/05/13 07:00:26;;;;;;;11.13;2.42;;;16.60;55.00;;;;;;5015789;28;20467;-47
2022/05/13 07:02:53;;;;;;;5.07;1.90;;;16.70;55.20;;;;;;5025263;28;20073;-46
2022/05/13 07:05:20;;;;;;;7.05;2.10;;;16.80;55.20;;;;;;5021690;28;20050;-46
2022/05/13 07:07:48;;;;;;;5.53;2.08;;;16.90;54.70;;;;;;5028334;28;20077;-49
2022/05/13 07:10:15;;;;;;;4.13;1.83;;;17.00;54.40;;;;;;5029734;28;20072;-48
2022/05/13 07:12:43;;;;;;;6.93;2.13;;;17.20;54.60;;;;;;5023624;28;20042;-47
2022/05/13 07:15:13;;;;;;;9.38;2.47;;;17.30;54.30;;;;;;5028545;28;20509;-48
2022/05/13 07:17:44;;;;;;;6.72;2.10;;;17.30;53.80;;;;;;5019068;28;20045;-50
2022/05/13 07:20:12;;;;;;;5.78;2.50;;;17.40;53.70;;;;;;5030025;28;20069;-50
2022/05/13 07:22:42;;;;;;;4.50;1.98;;;17.50;53.60;;;;;;5027349;28;20552;-48
2022/05/13 07:25:09;;;;;;;5.60;1.98;;;17.50;53.30;;;;;;5018773;28;20100;-47
2022/05/13 07:27:36;;;;;;;5.68;2.00;;;17.60;53.70;;;;;;5017251;28;20479;-51
2022/05/13 07:30:04;;;;;;;5.45;2.35;;;17.60;53.10;;;;;;5030326;28;20091;-49
2022/05/13 07:32:30;;;;;;;7.35;3.05;;;17.70;53.10;;;;;;5025453;28;20045;-51
2022/05/13 07:34:57;;;;;;;5.68;1.67;;;17.70;52.80;;;;;;5020276;28;20137;-47
2022/05/13 07:37:24;;;;;;;6.03;1.98;;;17.70;52.80;;;;;;5010489;28;20042;-48
2022/05/13 07:42:37;;;;;;;4.97;2.97;;;17.80;52.50;;;;;;5018584;28;20038;-48
2022/05/13 07:45:04;;;;;;;5.13;2.00;;;17.80;52.60;;;;;;5023541;28;20064;-47
2022/05/13 07:47:32;;;;;;;6.72;2.63;;;17.70;52.50;;;;;;5027588;28;20049;-47
2022/05/13 07:49:58;;;;;;;4.50;1.90;;;17.80;52.50;;;;;;5026885;28;20041;-48
2022/05/13 07:52:26;;;;;;;5.60;2.20;;;17.80;52.30;;;;;;5025535;28;20076;-49
2022/05/13 07:54:55;;;;;;;4.78;1.92;;;17.80;52.30;;;;;;5014042;28;20042;-47
2022/05/13 07:57:22;;;;;;;7.55;2.20;;;17.80;52.30;;;;;;5022217;28;20068;-48
2022/05/13 08:02:37;;;;;;;6.95;1.90;;;17.80;52.70;;;;;;5019352;28;20055;-49
2022/05/13 08:05:05;;;;;;;4.53;1.80;;;17.80;52.70;;;;;;5017894;28;20049;-48
2022/05/13 08:07:31;;;;;;;6.65;2.53;;;17.90;52.80;;;;;;5023721;28;20070;-49
2022/05/13 08:09:58;;;;;;;10.68;2.38;;;17.90;52.60;;;;;;5021374;28;20657;-51
2022/05/13 08:12:25;;;;;;;3.55;1.88;;;17.90;52.90;;;;;;5025870;28;20401;-46
2022/05/13 08:14:53;;;;;;;3.78;2.00;;;18.00;52.70;;;;;;5018603;28;20034;-50
2022/05/13 08:17:20;;;;;;;5.10;1.90;;;17.90;52.60;;;;;;5017594;28;20509;-49
2022/05/13 08:19:46;;;;;;;4.50;2.28;;;18.00;52.60;;;;;;5022451;28;20065;-48
2022/05/13 08:22:13;;;;;;;5.60;2.22;;;18.00;52.60;;;;;;5019193;28;20456;-49
2022/05/13 08:24:40;;;;;;;3.65;1.38;;;18.00;52.60;;;;;;5017178;28;20095;-48
2022/05/13 08:27:07;;;;;;;5.80;2.25;;;18.00;52.50;;;;;;5022884;28;20040;-48
2022/05/13 08:29:33;;;;;;;3.53;1.58;;;18.00;53.00;;;;;;5022777;28;20080;-48
2022/05/13 08:32:01;;;;;;;5.75;2.20;;;18.00;53.20;;;;;;5020660;28;20045;-48
2022/05/13 08:34:28;;;;;;;4.32;1.92;;;18.10;53.30;;;;;;5015380;28;20561;-49
2022/05/13 08:36:55;;;;;;;4.55;1.83;;;18.20;53.40;;;;;;5027839;28;20516;-50
2022/05/13 08:39:21;;;;;;;5.60;1.52;;;18.20;53.20;;;;;;5031332;28;20457;-52
2022/05/13 08:42:13;;;;;;;6.18;2.22;;;18.30;53.00;;;;;;5012435;28;20060;-48
2022/05/13 08:44:40;;;;;;;7.45;2.10;;;18.40;52.40;;;;;;5011207;28;20575;-48
2022/05/13 08:47:25;;;;;;;4.53;1.73;;;18.50;52.60;;;;;;5028486;28;20061;-50
2022/05/13 08:50:07;;;;;;;4.75;2.13;;;18.50;52.30;;;;;;5020345;28;20121;-51
2022/05/13 08:53:07;;;;;;;6.60;2.08;;;18.50;52.10;;;;;;5028566;28;20037;-47
2022/05/13 08:55:39;;;;;;;3.80;1.45;;;18.60;51.90;;;;;;5029733;28;20093;-50
2022/05/13 08:58:15;;;;;;;4.88;2.00;;;18.70;51.20;;;;;;5030022;28;20453;-46
2022/05/13 09:00:49;;;;;;;4.85;1.88;;;18.70;50.80;;;;;;5026773;28;20045;-49
2022/05/13 09:03:32;;;;;;;4.32;1.67;;;18.70;50.70;;;;;;5029948;28;20449;-49
2022/05/13 09:06:25;;;;;;;6.30;2.20;;;18.70;51.50;;;;;;5024377;28;20045;-52
2022/05/13 09:08:53;;;;;;;3.38;1.67;;;18.70;51.50;;;;;;5026962;28;20060;-52
2022/05/13 09:11:50;;;;;;;6.43;1.80;;;18.60;51.30;;;;;;5029918;28;20053;-47
2022/05/13 09:14:34;;;;;;;3.47;1.45;;;18.60;51.30;;;;;;5027912;28;20120;-52
2022/05/13 09:17:30;;;;;;;4.65;1.52;;;18.60;50.70;;;;;;5015475;28;20034;-50
2022/05/13 09:20:15;;;;;;;6.47;1.95;;;18.60;50.90;;;;;;5020679;28;20030;-50
2022/05/13 09:22:56;;;;;;;2.58;1.40;;;18.60;50.70;;;;;;5022294;28;20045;-47
2022/05/13 09:25:25;;;;;;;5.57;2.03;;;18.60;50.70;;;;;;5027624;28;20049;-48
2022/05/13 09:28:09;;;;;;;7.05;1.88;;;18.60;49.90;;;;;;5022484;28;20110;-48
2022/05/13 09:30:46;;;;;;;5.95;1.60;;;18.70;50.80;;;;;;5032083;28;20073;-48
2022/05/13 09:33:22;;;;;;;6.43;1.60;;;18.70;49.90;;;;;;5025883;28;20038;-48
2022/05/13 09:35:52;;;;;;;6.47;2.42;;;18.80;50.20;;;;;;5023447;28;20079;-50
2022/05/13 09:38:24;;;;;;;2.80;1.65;;;18.80;50.10;;;;;;5028415;28;20057;-50
2022/05/13 09:41:00;;;;;;;3.35;1.77;;;18.90;50.10;;;;;;5031107;28;20057;-49
2022/05/13 09:43:36;;;;;;;3.08;1.25;;;19.00;49.60;;;;;;5025907;28;20100;-50
2022/05/13 09:46:09;;;;;;;2.60;1.63;;;19.00;49.90;;;;;;5022830;28;20529;-49
2022/05/13 09:48:53;;;;;;;4.75;1.42;;;19.10;49.40;;;;;;5011460;28;20057;-50
2022/05/13 09:51:27;;;;;;;4.22;1.55;;;19.20;50.60;;;;;;5018080;28;20041;-46
2022/05/13 09:54:01;;;;;;;2.45;1.50;;;19.30;49.60;;;;;;5023106;28;20406;-49
2022/05/13 09:56:43;;;;;;;7.28;1.83;;;19.40;49.10;;;;;;5009301;28;20101;-52
2022/05/13 09:59:22;;;;;;;1.88;0.90;;;19.50;49.20;;;;;;5015326;28;20497;-49
2022/05/13 10:01:49;;;;;;;2.75;0.90;;;19.70;47.70;;;;;;5021673;28;20208;-49
2022/05/13 10:04:21;;;;;;;2.33;1.02;;;19.70;47.00;;;;;;5029383;28;20496;-52
2022/05/13 10:06:49;;;;;;;3.85;1.13;;;19.80;46.20;;;;;;5008227;28;20390;-50
2022/05/13 10:15:32;;;;;;;4.57;0.98;;;20.10;46.90;;;;;;5010590;28;20045;-51
2022/05/13 10:18:04;;;;;;;2.78;1.33;;;20.20;46.30;;;;;;5028546;28;20037;-48
2022/05/13 10:20:34;;;;;;;;;;;20.30;46.00;;;;;;5025755;28;20068;-48
2022/05/13 10:23:14;;;;;;;2.30;0.82;;;20.40;46.50;;;;;;5027868;28;19929;-51
2022/05/13 10:25:56;;;;;;;5.18;1.38;;;20.50;45.20;;;;;;5014293;28;20096;-48
2022/05/13 10:28:35;;;;;;;1.90;1.02;;;20.50;45.40;;;;;;5014720;28;20505;-51
2022/05/13 10:31:19;;;;;;;2.78;1.20;;;20.60;44.90;;;;;;5023376;28;20069;-48
2022/05/13 10:33:58;;;;;;;1.80;1.17;;;20.60;45.20;;;;;;5011758;28;20050;-50
2022/05/13 10:36:51;;;;;;;4.05;1.08;;;20.70;44.90;;;;;;5016521;28;20041;-50
2022/05/13 10:39:32;;;;;;;4.22;0.90;;;20.70;44.20;;;;;;5018742;28;20056;-50
2022/05/13 10:42:03;;;;;;;6.60;2.30;;;20.80;43.90;;;;;;5017321;28;20046;-47
2022/05/13 10:44:41;;;;;;;2.65;1.27;;;20.80;44.10;;;;;;5015332;28;20050;-50
2022/05/13 10:47:15;;;;;;;2.72;1.30;;;20.90;43.90;;;;;;5015067;28;20045;-48
2022/05/13 10:49:43;;;;;;;3.22;1.27;;;21.00;43.20;;;;;;5017230;28;20408;-48
2022/05/13 10:52:25;;;;;;;2.58;1.20;;;21.10;43.50;;;;;;5016944;28;20077;-49
2022/05/13 10:55:17;;;;;;;5.90;1.13;;;21.20;43.50;;;;;;5019002;28;20065;-50
2022/05/13 10:58:11;;;;;;;1.85;0.77;;;21.20;42.60;;;;;;5005097;28;20045;-50
2022/05/13 11:00:48;;;;;;;2.95;1.00;;;21.40;42.40;;;;;;4986758;28;20193;-50
2022/05/13 11:03:44;;;;;;;3.17;1.05;;;21.40;42.50;;;;;;5018106;28;20436;-52
2022/05/13 11:06:24;;;;;;;4.32;1.30;;;21.50;42.40;;;;;;5006105;28;20107;-51
2022/05/13 11:09:30;;;;;;;5.10;1.58;;;21.50;42.60;;;;;;5017492;28;20117;-52
2022/05/13 11:12:19;;;;;;;2.08;1.35;;;21.50;43.30;;;;;;5023158;28;20045;-52
2022/05/13 11:14:58;;;;;;;4.18;1.20;;;21.50;42.70;;;;;;5023718;28;20041;-53
2022/05/13 11:17:51;;;;;;;1.70;0.75;;;21.50;43.30;;;;;;5023876;28;20056;-51
2022/05/13 11:20:25;;;;;;;3.20;1.73;;;21.60;42.80;;;;;;5021088;28;20061;-49
2022/05/13 11:23:11;;;;;;;3.88;1.23;;;21.70;42.80;;;;;;5013801;23;20097;-53
2022/05/13 11:25:56;;;;;;;2.53;1.40;;;21.70;42.80;;;;;;4968927;28;20409;-51
2022/05/13 11:28:45;;;;;;;3.13;0.98;;;21.80;42.20;;;;;;4989681;28;20074;-53
2022/05/13 11:31:47;;;;;;;2.22;1.08;;;22.00;42.60;;;;;;4975782;28;20047;-51
2022/05/13 11:34:36;;;;;;;4.00;0.90;;;22.00;41.80;;;;;;4916158;28;20050;-50
2022/05/13 11:37:09;;;;;;;2.47;0.98;;;22.10;42.10;;;;;;4966115;28;20043;-51
2022/05/13 11:39:54;;;;;;;4.85;1.08;;;22.30;42.40;;;;;;4978029;28;20557;-51
2022/05/13 11:43:18;;;;;;;2.67;1.30;;;22.40;41.90;;;;;;4967210;28;20050;-53
2022/05/13 11:46:04;;;;;;;3.92;0.98;;;22.60;41.40;;;;;;4959448;28;20066;-52
2022/05/13 11:48:36;;;;;;;1.70;0.85;;;22.70;41.50;;;;;;4970856;28;20133;-52
2022/05/13 11:51:19;;;;;;;3.70;1.05;;;22.80;41.90;;;;;;4981455;28;20048;-53
2022/05/13 11:54:22;;;;;;;3.55;0.98;;;23.00;40.70;;;;;;4968843;28;20110;-50
2022/05/13 11:57:10;;;;;;;4.22;0.95;;;23.10;41.00;;;;;;4965461;28;20443;-51
2022/05/13 11:59:45;;;;;;;2.72;1.15;;;23.20;40.70;;;;;;4971697;28;20122;-51
2022/05/13 12:02:14;;;;;;;;;;;23.30;39.70;;;;;;4972378;28;20098;-50
2022/05/13 12:04:59;;;;;;;2.17;0.85;;;23.40;41.50;;;;;;4973703;28;19926;-48
2022/05/13 12:07:39;;;;;;;4.10;1.00;;;23.50;39.40;;;;;;4985831;28;20122;-51
2022/05/13 12:10:09;;;;;;;2.72;1.10;;;23.50;39.50;;;;;;4958134;28;20047;-53
2022/05/13 12:12:45;;;;;;;1.67;1.10;;;23.50;39.30;;;;;;4966929;28;20046;-52
2022/05/13 12:15:39;;;;;;;3.80;0.90;;;23.50;39.60;;;;;;4971379;28;20058;-52
2022/05/13 12:18:33;;;;;;;3.17;0.95;;;23.50;40.20;;;;;;4973809;28;20039;-47
2022/05/13 12:21:35;;;;;;;3.42;0.90;;;23.50;38.80;;;;;;4977610;28;20442;-52
2022/05/13 12:24:23;;;;;;;4.22;1.40;;;23.50;38.30;;;;;;4962119;28;20083;-50
2022/05/13 12:26:53;;;;;;;1.70;0.60;;;23.50;39.00;;;;;;4972681;28;20146;-51
2022/05/13 12:29:57;;;;;;;3.63;0.95;;;23.50;38.80;;;;;;4973388;28;20035;-53
2022/05/13 12:32:34;;;;;;;;;;;23.60;38.60;;;;;;4970979;28;20043;-50
2022/05/13 12:37:47;;;;;;;4.05;0.80;;;23.70;38.80;;;;;;4970723;28;20047;-50
2022/05/13 12:40:23;;;;;;;6.05;1.10;;;23.70;39.40;;;;;;4982088;28;20045;-50
2022/05/13 12:42:50;;;;;;;2.53;0.90;;;23.70;37.60;;;;;;4982940;28;20567;-52
2022/05/13 12:45:40;;;;;;;2.28;0.90;;;23.70;37.90;;;;;;4971745;28;20664;-52
2022/05/13 12:48:06;;;;;;;3.60;1.40;;;23.60;37.90;;;;;;4971620;28;20043;-53
2022/05/13 12:51:11;;;;;;;3.42;0.95;;;23.60;38.00;;;;;;4969500;28;20043;-53
2022/05/13 12:53:47;;;;;;;4.32;1.10;;;23.70;38.70;;;;;;4968220;28;20096;-52
2022/05/13 12:56:27;;;;;;;1.85;0.90;;;23.80;38.50;;;;;;4971643;28;20046;-48
2022/05/13 12:59:09;;;;;;;2.17;1.00;;;23.80;38.20;;;;;;4972413;28;20102;-53
2022/05/13 13:01:39;;;;;;;1.83;0.85;;;23.90;37.60;;;;;;4972621;28;20109;-52
2022/05/13 13:04:08;;;;;;;2.83;0.63;;;24.00;37.80;;;;;;4981978;28;20042;-53
2022/05/13 13:06:44;;;;;;;2.55;1.23;;;24.00;37.50;;;;;;4982640;28;20125;-51
2022/05/13 13:09:33;;;;;;;4.10;0.68;;;24.10;37.70;;;;;;4963863;28;20080;-53
2022/05/13 13:12:22;;;;;;;3.78;0.95;;;24.30;37.40;;;;;;4970253;28;20077;-52
2022/05/13 13:15:21;;;;;;;4.80;1.08;;;24.40;37.80;;;;;;4975994;28;20048;-50
2022/05/13 13:17:56;;;;;;;3.10;0.68;;;24.50;37.00;;;;;;4978965;28;20103;-51
2022/05/13 13:20:31;;;;;;;2.45;1.05;;;24.60;37.10;;;;;;4973786;28;20498;-52
2022/05/13 13:23:08;;;;;;;1.37;0.90;;;24.70;37.50;;;;;;4976365;28;20110;-50
2022/05/13 13:25:42;;;;;;;2.00;1.20;;;24.80;37.70;;;;;;4957880;28;20043;-53
2022/05/13 13:28:30;;;;;;;2.60;1.10;;;25.00;36.80;;;;;;4969464;28;20113;-48
2022/05/13 13:31:12;;;;;;;2.15;0.63;;;25.30;36.60;;;;;;4973043;28;20046;-53
2022/05/13 13:33:47;;;;;;;2.30;1.20;;;25.80;36.70;;;;;;4963659;28;20043;-49
2022/05/13 13:36:19;;;;;;;3.28;1.23;;;26.30;36.40;;;;;;4970472;28;20054;-48
2022/05/13 13:38:51;;;;;;;4.65;1.05;;;27.00;36.30;;;;;;4971666;28;20722;-52
2022/05/13 13:41:31;;;;;;;1.70;0.68;;;27.90;35.90;;;;;;4971777;28;20045;-52
2022/05/13 13:44:03;;;;;;;1.65;0.90;;;28.70;35.00;;;;;;4973311;28;20431;-51
2022/05/13 13:46:35;;;;;;;2.25;0.80;;;29.60;34.80;;;;;;4973369;28;20043;-51
2022/05/13 13:49:04;;;;;;;5.68;1.45;;;30.40;33.90;;;;;;4971087;28;20447;-53
2022/05/13 13:51:43;;;;;;;2.97;1.00;;;31.30;33.30;;;;;;4971539;28;20694;-49